sensor_id;sensor_type;location;lat;lon;timestamp;P1;durP1;ratioP1;P2;durP2;ratioP2
5995;SDS011;3026;53.612;7.278;2022-12-11T00:02:23;67.40;;;20.30;;
5995;SDS011;3026;53.612;7.278;2022-12-11T00:04:49;66.67;;;19.73;;
5995;SDS011;3026;53.612;7.278;2022-12-11T00:07:16;58.20;;;18.67;;
5995;SDS011;3026;53.612;7.278;2022-12-11T00:09:43;58.70;;;19.33;;
5995;SDS011;3026;53.612;7.278;2022-12-11T00:12:10;56.00;;;18.57;;
5995;SDS011;3026;53.612;7.278;2022-12-11T00:14:37;60.40;;;19.43;;
5995;SDS011;3026;53.612;7.278;2022-12-11T00:17:05;52.27;;;18.73;;
5995;SDS011;3026;53.612;7.278;2022-12-11T00:19:32;48.70;;;18.33;;
5995;SDS011;3026;53.612;7.278;2022-12-11T00:21:59;50.97;;;17.87;;
5995;SDS011;3026;53.612;7.278;2022-12-11T00:24:26;56.47;;;17.70;;
5995;SDS011;3026;53.612;7.278;2022-12-11T00:26:53;51.27;;;18.23;;
5995;SDS011;3026;53.612;7.278;2022-12-11T00:29:20;60.70;;;17.93;;
5995;SDS011;3026;53.612;7.278;2022-12-11T00:31:47;52.27;;;18.53;;
5995;SDS011;3026;53.612;7.278;2022-12-11T00:34:15;57.53;;;18.43;;
5995;SDS011;3026;53.612;7.278;2022-12-11T00:36:42;50.83;;;16.97;;
5995;SDS011;3026;53.612;7.278;2022-12-11T00:39:09;51.90;;;16.20;;
5995;SDS011;3026;53.612;7.278;2022-12-11T00:41:36;51.73;;;17.10;;
5995;SDS011;3026;53.612;7.278;2022-12-11T00:44:03;52.77;;;17.33;;
5995;SDS011;3026;53.612;7.278;2022-12-11T00:46:30;58.97;;;18.47;;
5995;SDS011;3026;53.612;7.278;2022-12-11T00:48:57;50.90;;;16.93;;
5995;SDS011;3026;53.612;7.278;2022-12-11T00:51:25;58.13;;;18.43;;
5995;SDS011;3026;53.612;7.278;2022-12-11T00:53:52;59.33;;;17.73;;
5995;SDS011;3026;53.612;7.278;2022-12-11T00:56:20;49.10;;;16.40;;
5995;SDS011;3026;53.612;7.278;2022-12-11T00:58:49;44.10;;;16.00;;
5995;SDS011;3026;53.612;7.278;2022-12-11T01:01:17;50.93;;;16.47;;
5995;SDS011;3026;53.612;7.278;2022-12-11T01:03:45;51.17;;;17.27;;
5995;SDS011;3026;53.612;7.278;2022-12-11T01:06:13;49.80;;;16.30;;
5995;SDS011;3026;53.612;7.278;2022-12-11T01:08:43;43.83;;;17.00;;
5995;SDS011;3026;53.612;7.278;2022-12-11T01:11:11;53.30;;;18.07;;
5995;SDS011;3026;53.612;7.278;2022-12-11T01:13:38;45.63;;;15.33;;
5995;SDS011;3026;53.612;7.278;2022-12-11T01:16:06;53.97;;;18.00;;
5995;SDS011;3026;53.612;7.278;2022-12-11T01:18:34;45.17;;;15.60;;
5995;SDS011;3026;53.612;7.278;2022-12-11T01:21:05;40.80;;;16.03;;
5995;SDS011;3026;53.612;7.278;2022-12-11T01:23:32;51.93;;;16.60;;
5995;SDS011;3026;53.612;7.278;2022-12-11T01:26:04;53.37;;;16.67;;
5995;SDS011;3026;53.612;7.278;2022-12-11T01:28:32;43.67;;;14.97;;
5995;SDS011;3026;53.612;7.278;2022-12-11T01:30:59;46.67;;;14.77;;
5995;SDS011;3026;53.612;7.278;2022-12-11T01:33:26;48.17;;;16.00;;
5995;SDS011;3026;53.612;7.278;2022-12-11T01:35:53;43.03;;;15.50;;
5995;SDS011;3026;53.612;7.278;2022-12-11T01:38:20;54.80;;;17.97;;
5995;SDS011;3026;53.612;7.278;2022-12-11T01:40:48;41.43;;;14.37;;
5995;SDS011;3026;53.612;7.278;2022-12-11T01:43:17;49.63;;;16.63;;
5995;SDS011;3026;53.612;7.278;2022-12-11T01:45:45;52.23;;;16.73;;
5995;SDS011;3026;53.612;7.278;2022-12-11T01:48:15;44.83;;;15.07;;
5995;SDS011;3026;53.612;7.278;2022-12-11T01:50:46;38.77;;;15.07;;
5995;SDS011;3026;53.612;7.278;2022-12-11T01:53:16;47.87;;;16.63;;
5995;SDS011;3026;53.612;7.278;2022-12-11T01:55:46;37.93;;;14.70;;
5995;SDS011;3026;53.612;7.278;2022-12-11T01:58:18;41.23;;;15.73;;
5995;SDS011;3026;53.612;7.278;2022-12-11T02:00:47;40.67;;;14.33;;
5995;SDS011;3026;53.612;7.278;2022-12-11T02:03:15;53.13;;;15.73;;
5995;SDS011;3026;53.612;7.278;2022-12-11T02:05:42;43.30;;;14.77;;
5995;SDS011;3026;53.612;7.278;2022-12-11T02:08:09;42.50;;;14.97;;
5995;SDS011;3026;53.612;7.278;2022-12-11T02:10:42;40.30;;;15.53;;
5995;SDS011;3026;53.612;7.278;2022-12-11T02:13:25;50.03;;;15.57;;
5995;SDS011;3026;53.612;7.278;2022-12-11T02:15:56;45.57;;;14.13;;
5995;SDS011;3026;53.612;7.278;2022-12-11T02:18:32;46.33;;;14.10;;
5995;SDS011;3026;53.612;7.278;2022-12-11T02:21:06;37.30;;;13.60;;
5995;SDS011;3026;53.612;7.278;2022-12-11T02:23:45;35.60;;;13.67;;
5995;SDS011;3026;53.612;7.278;2022-12-11T02:26:32;37.30;;;13.87;;
5995;SDS011;3026;53.612;7.278;2022-12-11T02:29:14;43.20;;;12.67;;
5995;SDS011;3026;53.612;7.278;2022-12-11T02:31:45;45.00;;;14.70;;
5995;SDS011;3026;53.612;7.278;2022-12-11T02:34:20;38.37;;;13.87;;
5995;SDS011;3026;53.612;7.278;2022-12-11T02:36:56;54.80;;;14.83;;
5995;SDS011;3026;53.612;7.278;2022-12-11T02:39:26;47.97;;;14.53;;
5995;SDS011;3026;53.612;7.278;2022-12-11T02:41:54;44.57;;;14.27;;
5995;SDS011;3026;53.612;7.278;2022-12-11T02:44:24;38.47;;;13.70;;
5995;SDS011;3026;53.612;7.278;2022-12-11T02:46:54;42.47;;;14.20;;
5995;SDS011;3026;53.612;7.278;2022-12-11T02:49:23;34.53;;;12.87;;
5995;SDS011;3026;53.612;7.278;2022-12-11T02:51:53;34.90;;;14.07;;
5995;SDS011;3026;53.612;7.278;2022-12-11T02:54:23;39.43;;;13.67;;
5995;SDS011;3026;53.612;7.278;2022-12-11T02:56:53;31.20;;;12.83;;
5995;SDS011;3026;53.612;7.278;2022-12-11T02:59:27;32.30;;;13.90;;
5995;SDS011;3026;53.612;7.278;2022-12-11T03:02:00;61.00;;;13.97;;
5995;SDS011;3026;53.612;7.278;2022-12-11T03:04:27;34.83;;;12.67;;
5995;SDS011;3026;53.612;7.278;2022-12-11T03:06:55;39.50;;;14.37;;
5995;SDS011;3026;53.612;7.278;2022-12-11T03:09:36;39.37;;;13.10;;
5995;SDS011;3026;53.612;7.278;2022-12-11T03:12:04;40.97;;;14.17;;
5995;SDS011;3026;53.612;7.278;2022-12-11T03:14:34;40.63;;;13.63;;
5995;SDS011;3026;53.612;7.278;2022-12-11T03:17:03;47.20;;;14.00;;
5995;SDS011;3026;53.612;7.278;2022-12-11T03:19:34;35.73;;;12.67;;
5995;SDS011;3026;53.612;7.278;2022-12-11T03:22:05;38.33;;;14.57;;
5995;SDS011;3026;53.612;7.278;2022-12-11T03:24:37;39.63;;;14.20;;
5995;SDS011;3026;53.612;7.278;2022-12-11T03:27:07;51.43;;;13.87;;
5995;SDS011;3026;53.612;7.278;2022-12-11T03:29:44;41.87;;;13.03;;
5995;SDS011;3026;53.612;7.278;2022-12-11T03:32:17;36.73;;;14.33;;
5995;SDS011;3026;53.612;7.278;2022-12-11T03:34:49;34.37;;;13.63;;
5995;SDS011;3026;53.612;7.278;2022-12-11T03:37:22;50.10;;;13.97;;
5995;SDS011;3026;53.612;7.278;2022-12-11T03:39:55;51.57;;;16.17;;
5995;SDS011;3026;53.612;7.278;2022-12-11T03:42:28;46.10;;;15.13;;
5995;SDS011;3026;53.612;7.278;2022-12-11T03:44:57;36.93;;;14.37;;
5995;SDS011;3026;53.612;7.278;2022-12-11T03:47:27;37.37;;;15.67;;
5995;SDS011;3026;53.612;7.278;2022-12-11T03:49:56;38.87;;;14.80;;
5995;SDS011;3026;53.612;7.278;2022-12-11T03:52:25;44.53;;;14.60;;
5995;SDS011;3026;53.612;7.278;2022-12-11T03:54:54;56.37;;;14.10;;
5995;SDS011;3026;53.612;7.278;2022-12-11T03:57:27;39.40;;;13.63;;
5995;SDS011;3026;53.612;7.278;2022-12-11T03:59:59;42.03;;;14.47;;
5995;SDS011;3026;53.612;7.278;2022-12-11T04:02:31;42.53;;;14.03;;
5995;SDS011;3026;53.612;7.278;2022-12-11T04:04:58;40.77;;;16.40;;
5995;SDS011;3026;53.612;7.278;2022-12-11T04:07:25;35.60;;;13.97;;
5995;SDS011;3026;53.612;7.278;2022-12-11T04:09:52;33.67;;;13.73;;
5995;SDS011;3026;53.612;7.278;2022-12-11T04:12:19;45.43;;;16.20;;
5995;SDS011;3026;53.612;7.278;2022-12-11T04:14:46;37.03;;;14.13;;
5995;SDS011;3026;53.612;7.278;2022-12-11T04:17:30;33.23;;;13.77;;
5995;SDS011;3026;53.612;7.278;2022-12-11T04:20:16;43.87;;;14.63;;
5995;SDS011;3026;53.612;7.278;2022-12-11T04:23:13;34.13;;;13.60;;
5995;SDS011;3026;53.612;7.278;2022-12-11T04:26:02;37.43;;;14.40;;
5995;SDS011;3026;53.612;7.278;2022-12-11T04:28:29;37.30;;;14.10;;
5995;SDS011;3026;53.612;7.278;2022-12-11T04:30:56;38.00;;;15.70;;
5995;SDS011;3026;53.612;7.278;2022-12-11T04:33:24;41.10;;;14.23;;
5995;SDS011;3026;53.612;7.278;2022-12-11T04:35:51;40.87;;;15.03;;
5995;SDS011;3026;53.612;7.278;2022-12-11T04:38:18;37.07;;;14.17;;
5995;SDS011;3026;53.612;7.278;2022-12-11T04:40:45;33.63;;;12.70;;
5995;SDS011;3026;53.612;7.278;2022-12-11T04:43:12;40.80;;;14.27;;
5995;SDS011;3026;53.612;7.278;2022-12-11T04:45:39;39.20;;;13.13;;
5995;SDS011;3026;53.612;7.278;2022-12-11T04:48:06;35.93;;;13.80;;
5995;SDS011;3026;53.612;7.278;2022-12-11T04:50:34;36.20;;;14.97;;
5995;SDS011;3026;53.612;7.278;2022-12-11T04:53:01;32.07;;;13.40;;
5995;SDS011;3026;53.612;7.278;2022-12-11T04:55:28;36.73;;;13.17;;
5995;SDS011;3026;53.612;7.278;2022-12-11T04:57:54;35.53;;;14.80;;
5995;SDS011;3026;53.612;7.278;2022-12-11T05:00:21;29.03;;;12.23;;
5995;SDS011;3026;53.612;7.278;2022-12-11T05:02:48;35.07;;;13.20;;
5995;SDS011;3026;53.612;7.278;2022-12-11T05:05:15;34.17;;;14.20;;
5995;SDS011;3026;53.612;7.278;2022-12-11T05:07:43;37.23;;;13.10;;
5995;SDS011;3026;53.612;7.278;2022-12-11T05:10:10;32.40;;;13.03;;
5995;SDS011;3026;53.612;7.278;2022-12-11T05:12:37;31.03;;;12.43;;
5995;SDS011;3026;53.612;7.278;2022-12-11T05:15:04;33.33;;;12.80;;
5995;SDS011;3026;53.612;7.278;2022-12-11T05:17:32;34.90;;;12.00;;
5995;SDS011;3026;53.612;7.278;2022-12-11T05:19:59;31.00;;;11.63;;
5995;SDS011;3026;53.612;7.278;2022-12-11T05:22:26;29.77;;;12.40;;
5995;SDS011;3026;53.612;7.278;2022-12-11T05:24:57;29.60;;;12.07;;
5995;SDS011;3026;53.612;7.278;2022-12-11T05:27:24;28.23;;;10.90;;
5995;SDS011;3026;53.612;7.278;2022-12-11T05:29:52;26.27;;;12.07;;
5995;SDS011;3026;53.612;7.278;2022-12-11T05:32:18;26.33;;;10.57;;
5995;SDS011;3026;53.612;7.278;2022-12-11T05:34:45;32.43;;;12.10;;
5995;SDS011;3026;53.612;7.278;2022-12-11T05:37:12;25.80;;;10.83;;
5995;SDS011;3026;53.612;7.278;2022-12-11T05:39:39;33.47;;;13.10;;
5995;SDS011;3026;53.612;7.278;2022-12-11T05:42:07;31.00;;;11.43;;
5995;SDS011;3026;53.612;7.278;2022-12-11T05:44:34;27.23;;;11.37;;
5995;SDS011;3026;53.612;7.278;2022-12-11T05:47:01;26.80;;;11.53;;
5995;SDS011;3026;53.612;7.278;2022-12-11T05:49:28;30.37;;;11.10;;
5995;SDS011;3026;53.612;7.278;2022-12-11T05:51:55;29.73;;;11.57;;
5995;SDS011;3026;53.612;7.278;2022-12-11T05:54:22;28.03;;;11.20;;
5995;SDS011;3026;53.612;7.278;2022-12-11T05:56:49;28.67;;;11.77;;
5995;SDS011;3026;53.612;7.278;2022-12-11T05:59:17;26.70;;;11.00;;
5995;SDS011;3026;53.612;7.278;2022-12-11T06:01:44;25.37;;;10.03;;
5995;SDS011;3026;53.612;7.278;2022-12-11T06:04:11;24.47;;;11.00;;
5995;SDS011;3026;53.612;7.278;2022-12-11T06:06:38;22.77;;;10.47;;
5995;SDS011;3026;53.612;7.278;2022-12-11T06:09:06;22.83;;;10.07;;
5995;SDS011;3026;53.612;7.278;2022-12-11T06:11:33;24.60;;;10.40;;
5995;SDS011;3026;53.612;7.278;2022-12-11T06:14:01;29.03;;;11.53;;
5995;SDS011;3026;53.612;7.278;2022-12-11T06:16:30;24.60;;;10.63;;
5995;SDS011;3026;53.612;7.278;2022-12-11T06:18:57;25.10;;;11.30;;
5995;SDS011;3026;53.612;7.278;2022-12-11T06:21:25;28.33;;;11.10;;
5995;SDS011;3026;53.612;7.278;2022-12-11T06:23:55;27.13;;;11.17;;
5995;SDS011;3026;53.612;7.278;2022-12-11T06:26:23;28.53;;;11.87;;
5995;SDS011;3026;53.612;7.278;2022-12-11T06:28:51;28.17;;;11.03;;
5995;SDS011;3026;53.612;7.278;2022-12-11T06:31:18;27.37;;;11.73;;
5995;SDS011;3026;53.612;7.278;2022-12-11T06:33:47;26.07;;;10.93;;
5995;SDS011;3026;53.612;7.278;2022-12-11T06:36:15;29.67;;;11.27;;
5995;SDS011;3026;53.612;7.278;2022-12-11T06:38:44;27.47;;;12.10;;
5995;SDS011;3026;53.612;7.278;2022-12-11T06:41:11;26.37;;;10.43;;
5995;SDS011;3026;53.612;7.278;2022-12-11T06:43:39;30.47;;;10.63;;
5995;SDS011;3026;53.612;7.278;2022-12-11T06:46:08;24.53;;;11.30;;
5995;SDS011;3026;53.612;7.278;2022-12-11T06:48:36;23.53;;;11.17;;
5995;SDS011;3026;53.612;7.278;2022-12-11T06:51:07;25.80;;;10.73;;
5995;SDS011;3026;53.612;7.278;2022-12-11T06:53:35;24.77;;;10.83;;
5995;SDS011;3026;53.612;7.278;2022-12-11T06:56:02;29.03;;;11.17;;
5995;SDS011;3026;53.612;7.278;2022-12-11T06:58:30;26.93;;;11.53;;
5995;SDS011;3026;53.612;7.278;2022-12-11T07:00:58;32.17;;;11.13;;
5995;SDS011;3026;53.612;7.278;2022-12-11T07:03:26;28.10;;;11.07;;
5995;SDS011;3026;53.612;7.278;2022-12-11T07:05:53;25.27;;;9.97;;
5995;SDS011;3026;53.612;7.278;2022-12-11T07:08:21;22.40;;;10.47;;
5995;SDS011;3026;53.612;7.278;2022-12-11T07:10:48;25.43;;;10.20;;
5995;SDS011;3026;53.612;7.278;2022-12-11T07:13:15;24.60;;;9.90;;
5995;SDS011;3026;53.612;7.278;2022-12-11T07:15:42;24.80;;;11.37;;
5995;SDS011;3026;53.612;7.278;2022-12-11T07:18:08;22.70;;;9.80;;
5995;SDS011;3026;53.612;7.278;2022-12-11T07:20:36;24.47;;;11.07;;
5995;SDS011;3026;53.612;7.278;2022-12-11T07:23:03;23.53;;;10.43;;
5995;SDS011;3026;53.612;7.278;2022-12-11T07:25:31;28.03;;;10.53;;
5995;SDS011;3026;53.612;7.278;2022-12-11T07:27:58;27.30;;;11.90;;
5995;SDS011;3026;53.612;7.278;2022-12-11T07:30:25;26.77;;;10.57;;
5995;SDS011;3026;53.612;7.278;2022-12-11T07:32:51;27.43;;;10.77;;
5995;SDS011;3026;53.612;7.278;2022-12-11T07:35:18;26.40;;;11.27;;
5995;SDS011;3026;53.612;7.278;2022-12-11T07:37:45;28.43;;;10.97;;
5995;SDS011;3026;53.612;7.278;2022-12-11T07:40:12;30.47;;;11.67;;
5995;SDS011;3026;53.612;7.278;2022-12-11T07:42:40;26.13;;;10.80;;
5995;SDS011;3026;53.612;7.278;2022-12-11T07:45:08;28.47;;;10.70;;
5995;SDS011;3026;53.612;7.278;2022-12-11T07:47:36;28.70;;;11.67;;
5995;SDS011;3026;53.612;7.278;2022-12-11T07:50:03;27.80;;;11.90;;
5995;SDS011;3026;53.612;7.278;2022-12-11T07:52:31;36.73;;;12.37;;
5995;SDS011;3026;53.612;7.278;2022-12-11T07:54:59;30.67;;;11.90;;
5995;SDS011;3026;53.612;7.278;2022-12-11T07:57:26;32.17;;;12.57;;
5995;SDS011;3026;53.612;7.278;2022-12-11T07:59:54;24.77;;;11.40;;
5995;SDS011;3026;53.612;7.278;2022-12-11T08:02:22;29.67;;;13.17;;
5995;SDS011;3026;53.612;7.278;2022-12-11T08:04:49;27.40;;;11.93;;
5995;SDS011;3026;53.612;7.278;2022-12-11T08:07:16;26.27;;;11.10;;
5995;SDS011;3026;53.612;7.278;2022-12-11T08:09:43;27.53;;;11.40;;
5995;SDS011;3026;53.612;7.278;2022-12-11T08:12:10;25.83;;;11.67;;
5995;SDS011;3026;53.612;7.278;2022-12-11T08:14:37;25.67;;;11.33;;
5995;SDS011;3026;53.612;7.278;2022-12-11T08:17:06;25.97;;;12.23;;
5995;SDS011;3026;53.612;7.278;2022-12-11T08:19:32;28.40;;;12.10;;
5995;SDS011;3026;53.612;7.278;2022-12-11T08:21:59;27.43;;;11.93;;
5995;SDS011;3026;53.612;7.278;2022-12-11T08:24:26;27.77;;;12.10;;
5995;SDS011;3026;53.612;7.278;2022-12-11T08:26:53;24.47;;;11.00;;
5995;SDS011;3026;53.612;7.278;2022-12-11T08:29:20;30.47;;;12.90;;
5995;SDS011;3026;53.612;7.278;2022-12-11T08:31:46;27.83;;;11.93;;
5995;SDS011;3026;53.612;7.278;2022-12-11T08:34:15;28.33;;;12.17;;
5995;SDS011;3026;53.612;7.278;2022-12-11T08:36:42;25.53;;;11.80;;
5995;SDS011;3026;53.612;7.278;2022-12-11T08:39:09;26.33;;;12.03;;
5995;SDS011;3026;53.612;7.278;2022-12-11T08:41:36;24.43;;;10.93;;
5995;SDS011;3026;53.612;7.278;2022-12-11T08:44:03;27.87;;;12.03;;
5995;SDS011;3026;53.612;7.278;2022-12-11T08:46:31;30.07;;;12.63;;
5995;SDS011;3026;53.612;7.278;2022-12-11T08:48:58;28.07;;;11.03;;
5995;SDS011;3026;53.612;7.278;2022-12-11T08:51:27;28.33;;;13.67;;
5995;SDS011;3026;53.612;7.278;2022-12-11T08:53:55;33.23;;;12.63;;
5995;SDS011;3026;53.612;7.278;2022-12-11T08:56:24;35.03;;;13.57;;
5995;SDS011;3026;53.612;7.278;2022-12-11T08:58:52;32.27;;;12.43;;
5995;SDS011;3026;53.612;7.278;2022-12-11T09:01:19;28.70;;;12.40;;
5995;SDS011;3026;53.612;7.278;2022-12-11T09:03:48;32.90;;;12.40;;
5995;SDS011;3026;53.612;7.278;2022-12-11T09:06:17;29.63;;;12.07;;
5995;SDS011;3026;53.612;7.278;2022-12-11T09:08:47;30.10;;;12.37;;
5995;SDS011;3026;53.612;7.278;2022-12-11T09:11:16;27.80;;;12.30;;
5995;SDS011;3026;53.612;7.278;2022-12-11T09:13:45;27.67;;;13.23;;
5995;SDS011;3026;53.612;7.278;2022-12-11T09:16:12;30.43;;;12.93;;
5995;SDS011;3026;53.612;7.278;2022-12-11T09:18:41;30.20;;;13.07;;
5995;SDS011;3026;53.612;7.278;2022-12-11T09:21:08;36.33;;;12.60;;
5995;SDS011;3026;53.612;7.278;2022-12-11T09:23:37;32.63;;;13.40;;
5995;SDS011;3026;53.612;7.278;2022-12-11T09:26:07;33.20;;;13.17;;
5995;SDS011;3026;53.612;7.278;2022-12-11T09:28:36;28.03;;;11.70;;
5995;SDS011;3026;53.612;7.278;2022-12-11T09:31:06;35.63;;;13.43;;
5995;SDS011;3026;53.612;7.278;2022-12-11T09:33:34;34.20;;;12.57;;
5995;SDS011;3026;53.612;7.278;2022-12-11T09:36:01;32.70;;;12.30;;
5995;SDS011;3026;53.612;7.278;2022-12-11T09:38:29;32.30;;;13.20;;
5995;SDS011;3026;53.612;7.278;2022-12-11T09:40:57;37.50;;;12.73;;
5995;SDS011;3026;53.612;7.278;2022-12-11T09:43:29;33.13;;;13.33;;
5995;SDS011;3026;53.612;7.278;2022-12-11T09:46:04;36.47;;;12.97;;
5995;SDS011;3026;53.612;7.278;2022-12-11T09:48:34;31.03;;;13.33;;
5995;SDS011;3026;53.612;7.278;2022-12-11T09:51:04;29.93;;;13.40;;
5995;SDS011;3026;53.612;7.278;2022-12-11T09:53:40;29.30;;;12.50;;
5995;SDS011;3026;53.612;7.278;2022-12-11T09:56:10;28.67;;;12.37;;
5995;SDS011;3026;53.612;7.278;2022-12-11T09:58:46;29.90;;;12.97;;
5995;SDS011;3026;53.612;7.278;2022-12-11T10:01:23;39.30;;;13.30;;
5995;SDS011;3026;53.612;7.278;2022-12-11T10:04:02;36.47;;;12.77;;
5995;SDS011;3026;53.612;7.278;2022-12-11T10:06:41;23.87;;;11.33;;
5995;SDS011;3026;53.612;7.278;2022-12-11T10:09:16;30.90;;;12.53;;
5995;SDS011;3026;53.612;7.278;2022-12-11T10:11:53;29.43;;;12.50;;
5995;SDS011;3026;53.612;7.278;2022-12-11T10:14:35;30.80;;;12.37;;
5995;SDS011;3026;53.612;7.278;2022-12-11T10:17:14;28.53;;;12.00;;
5995;SDS011;3026;53.612;7.278;2022-12-11T10:19:45;28.10;;;13.47;;
5995;SDS011;3026;53.612;7.278;2022-12-11T10:22:19;29.97;;;13.00;;
5995;SDS011;3026;53.612;7.278;2022-12-11T10:24:51;35.47;;;12.70;;
5995;SDS011;3026;53.612;7.278;2022-12-11T10:27:22;29.17;;;12.37;;
5995;SDS011;3026;53.612;7.278;2022-12-11T10:29:58;31.70;;;11.60;;
5995;SDS011;3026;53.612;7.278;2022-12-11T10:32:31;38.13;;;13.70;;
5995;SDS011;3026;53.612;7.278;2022-12-11T10:35:17;29.77;;;12.03;;
5995;SDS011;3026;53.612;7.278;2022-12-11T10:37:46;32.67;;;12.97;;
5995;SDS011;3026;53.612;7.278;2022-12-11T10:40:12;33.70;;;13.30;;
5995;SDS011;3026;53.612;7.278;2022-12-11T10:42:49;33.07;;;12.20;;
5995;SDS011;3026;53.612;7.278;2022-12-11T10:45:19;27.27;;;12.73;;
5995;SDS011;3026;53.612;7.278;2022-12-11T10:47:46;29.00;;;11.10;;
5995;SDS011;3026;53.612;7.278;2022-12-11T10:50:23;30.10;;;12.10;;
5995;SDS011;3026;53.612;7.278;2022-12-11T10:52:51;29.33;;;13.10;;
5995;SDS011;3026;53.612;7.278;2022-12-11T10:55:19;33.80;;;12.83;;
5995;SDS011;3026;53.612;7.278;2022-12-11T10:57:53;32.00;;;12.47;;
5995;SDS011;3026;53.612;7.278;2022-12-11T11:00:27;28.90;;;11.60;;
5995;SDS011;3026;53.612;7.278;2022-12-11T11:02:57;30.17;;;12.17;;
5995;SDS011;3026;53.612;7.278;2022-12-11T11:05:28;31.83;;;13.17;;
5995;SDS011;3026;53.612;7.278;2022-12-11T11:08:02;30.33;;;12.50;;
5995;SDS011;3026;53.612;7.278;2022-12-11T11:10:36;32.80;;;12.70;;
5995;SDS011;3026;53.612;7.278;2022-12-11T11:13:03;27.40;;;11.67;;
5995;SDS011;3026;53.612;7.278;2022-12-11T11:15:31;27.43;;;11.73;;
5995;SDS011;3026;53.612;7.278;2022-12-11T11:18:00;28.47;;;11.23;;
5995;SDS011;3026;53.612;7.278;2022-12-11T11:20:34;32.40;;;10.67;;
5995;SDS011;3026;53.612;7.278;2022-12-11T11:23:02;25.57;;;10.73;;
5995;SDS011;3026;53.612;7.278;2022-12-11T11:25:46;25.27;;;10.90;;
5995;SDS011;3026;53.612;7.278;2022-12-11T11:28:16;28.23;;;11.87;;
5995;SDS011;3026;53.612;7.278;2022-12-11T11:30:54;26.83;;;12.17;;
5995;SDS011;3026;53.612;7.278;2022-12-11T11:33:24;26.23;;;11.07;;
5995;SDS011;3026;53.612;7.278;2022-12-11T11:35:52;26.33;;;11.60;;
5995;SDS011;3026;53.612;7.278;2022-12-11T11:38:21;27.07;;;11.07;;
5995;SDS011;3026;53.612;7.278;2022-12-11T11:40:51;28.70;;;11.37;;
5995;SDS011;3026;53.612;7.278;2022-12-11T11:43:25;28.30;;;10.40;;
5995;SDS011;3026;53.612;7.278;2022-12-11T11:46:02;24.43;;;10.77;;
5995;SDS011;3026;53.612;7.278;2022-12-11T11:48:38;24.60;;;11.07;;
5995;SDS011;3026;53.612;7.278;2022-12-11T11:51:12;30.47;;;11.30;;
5995;SDS011;3026;53.612;7.278;2022-12-11T11:53:45;27.73;;;11.60;;
5995;SDS011;3026;53.612;7.278;2022-12-11T11:56:16;28.10;;;11.50;;
5995;SDS011;3026;53.612;7.278;2022-12-11T11:58:53;23.70;;;10.00;;
5995;SDS011;3026;53.612;7.278;2022-12-11T12:01:29;24.83;;;11.30;;
5995;SDS011;3026;53.612;7.278;2022-12-11T12:03:57;24.97;;;10.90;;
5995;SDS011;3026;53.612;7.278;2022-12-11T12:09:25;31.50;;;11.67;;
5995;SDS011;3026;53.612;7.278;2022-12-11T12:12:05;26.27;;;11.70;;
5995;SDS011;3026;53.612;7.278;2022-12-11T12:14:42;21.20;;;9.37;;
5995;SDS011;3026;53.612;7.278;2022-12-11T12:17:25;31.90;;;11.10;;
5995;SDS011;3026;53.612;7.278;2022-12-11T12:20:02;26.20;;;10.63;;
5995;SDS011;3026;53.612;7.278;2022-12-11T12:25:25;24.23;;;10.13;;
5995;SDS011;3026;53.612;7.278;2022-12-11T12:27:59;24.97;;;10.63;;
5995;SDS011;3026;53.612;7.278;2022-12-11T12:30:37;20.40;;;10.23;;
5995;SDS011;3026;53.612;7.278;2022-12-11T12:33:17;24.43;;;12.03;;
5995;SDS011;3026;53.612;7.278;2022-12-11T12:35:55;27.23;;;11.67;;
5995;SDS011;3026;53.612;7.278;2022-12-11T12:38:33;22.03;;;10.63;;
5995;SDS011;3026;53.612;7.278;2022-12-11T12:41:09;25.17;;;10.60;;
5995;SDS011;3026;53.612;7.278;2022-12-11T12:43:46;25.03;;;10.77;;
5995;SDS011;3026;53.612;7.278;2022-12-11T12:46:28;26.67;;;11.07;;
5995;SDS011;3026;53.612;7.278;2022-12-11T12:49:09;28.20;;;11.60;;
5995;SDS011;3026;53.612;7.278;2022-12-11T12:51:40;27.73;;;11.33;;
5995;SDS011;3026;53.612;7.278;2022-12-11T12:54:10;25.00;;;10.90;;
5995;SDS011;3026;53.612;7.278;2022-12-11T12:56:39;26.43;;;10.73;;
5995;SDS011;3026;53.612;7.278;2022-12-11T12:59:17;25.03;;;12.17;;
5995;SDS011;3026;53.612;7.278;2022-12-11T13:01:47;27.67;;;10.83;;
5995;SDS011;3026;53.612;7.278;2022-12-11T13:04:28;26.33;;;12.13;;
5995;SDS011;3026;53.612;7.278;2022-12-11T13:07:09;27.67;;;11.73;;
5995;SDS011;3026;53.612;7.278;2022-12-11T13:09:38;26.37;;;12.10;;
5995;SDS011;3026;53.612;7.278;2022-12-11T13:12:11;28.57;;;12.27;;
5995;SDS011;3026;53.612;7.278;2022-12-11T13:14:40;25.53;;;12.30;;
5995;SDS011;3026;53.612;7.278;2022-12-11T13:17:24;27.13;;;11.23;;
5995;SDS011;3026;53.612;7.278;2022-12-11T13:20:15;24.07;;;10.97;;
5995;SDS011;3026;53.612;7.278;2022-12-11T13:22:54;27.83;;;11.80;;
5995;SDS011;3026;53.612;7.278;2022-12-11T13:25:44;28.47;;;12.70;;
5995;SDS011;3026;53.612;7.278;2022-12-11T13:28:26;24.20;;;11.33;;
5995;SDS011;3026;53.612;7.278;2022-12-11T13:30:59;31.00;;;13.50;;
5995;SDS011;3026;53.612;7.278;2022-12-11T13:33:28;28.67;;;11.97;;
5995;SDS011;3026;53.612;7.278;2022-12-11T13:36:15;27.60;;;11.40;;
5995;SDS011;3026;53.612;7.278;2022-12-11T13:38:50;26.17;;;11.77;;
5995;SDS011;3026;53.612;7.278;2022-12-11T13:41:20;30.33;;;12.23;;
5995;SDS011;3026;53.612;7.278;2022-12-11T13:43:48;23.53;;;11.23;;
5995;SDS011;3026;53.612;7.278;2022-12-11T13:46:18;29.00;;;11.23;;
5995;SDS011;3026;53.612;7.278;2022-12-11T13:48:49;23.53;;;11.47;;
5995;SDS011;3026;53.612;7.278;2022-12-11T13:51:21;23.80;;;11.00;;
5995;SDS011;3026;53.612;7.278;2022-12-11T13:54:00;28.90;;;11.90;;
5995;SDS011;3026;53.612;7.278;2022-12-11T13:56:28;24.40;;;10.33;;
5995;SDS011;3026;53.612;7.278;2022-12-11T13:58:55;25.53;;;11.17;;
5995;SDS011;3026;53.612;7.278;2022-12-11T14:01:22;27.70;;;11.87;;
5995;SDS011;3026;53.612;7.278;2022-12-11T14:03:54;23.97;;;10.87;;
5995;SDS011;3026;53.612;7.278;2022-12-11T14:06:24;25.00;;;11.03;;
5995;SDS011;3026;53.612;7.278;2022-12-11T14:08:53;23.27;;;11.23;;
5995;SDS011;3026;53.612;7.278;2022-12-11T14:11:24;21.90;;;10.43;;
5995;SDS011;3026;53.612;7.278;2022-12-11T14:13:53;24.50;;;11.30;;
5995;SDS011;3026;53.612;7.278;2022-12-11T14:16:23;26.90;;;10.97;;
5995;SDS011;3026;53.612;7.278;2022-12-11T14:18:51;25.13;;;11.20;;
5995;SDS011;3026;53.612;7.278;2022-12-11T14:21:20;23.30;;;12.03;;
5995;SDS011;3026;53.612;7.278;2022-12-11T14:23:52;23.37;;;10.97;;
5995;SDS011;3026;53.612;7.278;2022-12-11T14:26:21;23.27;;;12.07;;
5995;SDS011;3026;53.612;7.278;2022-12-11T14:28:49;22.53;;;12.50;;
5995;SDS011;3026;53.612;7.278;2022-12-11T14:31:18;26.03;;;11.23;;
5995;SDS011;3026;53.612;7.278;2022-12-11T14:33:50;24.03;;;11.53;;
5995;SDS011;3026;53.612;7.278;2022-12-11T14:36:21;28.37;;;11.80;;
5995;SDS011;3026;53.612;7.278;2022-12-11T14:38:50;28.30;;;12.07;;
5995;SDS011;3026;53.612;7.278;2022-12-11T14:41:22;30.47;;;12.27;;
5995;SDS011;3026;53.612;7.278;2022-12-11T14:43:55;25.47;;;10.80;;
5995;SDS011;3026;53.612;7.278;2022-12-11T14:46:28;26.23;;;11.67;;
5995;SDS011;3026;53.612;7.278;2022-12-11T14:49:02;25.33;;;12.53;;
5995;SDS011;3026;53.612;7.278;2022-12-11T14:51:37;23.77;;;11.60;;
5995;SDS011;3026;53.612;7.278;2022-12-11T14:54:09;26.30;;;11.50;;
5995;SDS011;3026;53.612;7.278;2022-12-11T14:56:43;25.13;;;11.60;;
5995;SDS011;3026;53.612;7.278;2022-12-11T14:59:15;21.37;;;11.93;;
5995;SDS011;3026;53.612;7.278;2022-12-11T15:01:46;25.87;;;11.17;;
5995;SDS011;3026;53.612;7.278;2022-12-11T15:04:25;25.50;;;10.33;;
5995;SDS011;3026;53.612;7.278;2022-12-11T15:06:54;28.20;;;12.63;;
5995;SDS011;3026;53.612;7.278;2022-12-11T15:09:25;26.80;;;10.73;;
5995;SDS011;3026;53.612;7.278;2022-12-11T15:11:54;25.70;;;11.60;;
5995;SDS011;3026;53.612;7.278;2022-12-11T15:14:24;25.93;;;12.13;;